createdAt,value
2022-09-04T00:01:32.186Z,16.00
2022-09-04T00:04:43.471Z,16.06
2022-09-04T00:07:40.124Z,15.88
2022-09-04T00:10:32.115Z,15.56
2022-09-04T00:13:28.317Z,15.63
2022-09-04T00:16:21.037Z,15.88
2022-09-04T00:18:58.324Z,15.81
2022-09-04T00:21:55.353Z,15.81
2022-09-04T00:24:54.225Z,15.88
2022-09-04T00:27:43.578Z,15.69
2022-09-04T00:30:20.498Z,15.50
2022-09-04T00:33:16.831Z,15.81
2022-09-04T00:36:00.392Z,15.75
2022-09-04T00:38:48.047Z,15.69
2022-09-04T00:41:56.363Z,15.88
2022-09-04T00:44:47.771Z,15.94
2022-09-04T00:47:48.891Z,16.06
2022-09-04T00:51:07.066Z,15.94
2022-09-04T00:53:52.024Z,15.94
2022-09-04T00:56:47.133Z,15.94
2022-09-04T00:59:49.320Z,16.06
2022-09-04T01:02:57.404Z,15.94
2022-09-04T01:05:49.120Z,16.06
2022-09-04T01:08:23.728Z,16.13
2022-09-04T01:11:10.741Z,16.06
2022-09-04T01:14:25.576Z,16.06
2022-09-04T01:17:27.789Z,16.25
2022-09-04T01:20:48.048Z,16.06
2022-09-04T01:26:46.311Z,16.06
2022-09-04T01:29:36.289Z,16.06
2022-09-04T01:32:53.055Z,16.13
2022-09-04T01:35:42.113Z,16.25
2022-09-04T01:38:26.088Z,16.06
2022-09-04T01:41:12.126Z,15.75
2022-09-04T01:43:42.315Z,16.06
2022-09-04T01:46:42.404Z,16.13
2022-09-04T01:49:38.153Z,16.25
2022-09-04T01:53:09.606Z,16.25
2022-09-04T01:55:54.594Z,16.25
2022-09-04T01:58:39.136Z,16.38
2022-09-04T02:01:57.156Z,16.50
2022-09-04T02:04:56.527Z,16.38
2022-09-04T02:07:47.277Z,16.31
2022-09-04T02:10:50.203Z,16.25
2022-09-04T02:13:45.145Z,16.25
2022-09-04T02:16:22.763Z,16.44
2022-09-04T02:19:19.157Z,16.31
2022-09-04T02:22:34.839Z,16.44
2022-09-04T02:25:26.183Z,16.38
2022-09-04T02:28:33.978Z,16.25
2022-09-04T02:31:31.893Z,16.19
2022-09-04T02:34:44.620Z,16.13
2022-09-04T02:37:20.570Z,16.31
2022-09-04T02:40:16.902Z,16.19
2022-09-04T02:45:40.750Z,16.25
2022-09-04T02:48:41.856Z,16.19
2022-09-04T02:51:46.868Z,16.06
2022-09-04T02:54:48.722Z,16.13
2022-09-04T02:57:27.751Z,16.06
2022-09-04T03:00:21.589Z,16.25
2022-09-04T03:03:24.562Z,16.00
2022-09-04T03:06:09.506Z,16.19
2022-09-04T03:09:11.024Z,16.25
2022-09-04T03:11:49.159Z,16.06
2022-09-04T03:14:46.754Z,15.94
2022-09-04T03:17:38.660Z,16.06
2022-09-04T03:20:26.004Z,16.19
2022-09-04T03:23:30.702Z,16.19
2022-09-04T03:26:29.415Z,16.25
2022-09-04T03:29:12.454Z,16.19
2022-09-04T03:32:15.176Z,16.31
2022-09-04T03:35:14.364Z,16.31
2022-09-04T03:38:07.823Z,16.25
2022-09-04T03:40:57.908Z,16.25
2022-09-04T03:46:47.764Z,16.13
2022-09-04T03:49:21.926Z,15.94
2022-09-04T03:52:14.059Z,15.94
2022-09-04T03:55:03.717Z,15.81
2022-09-04T03:58:02.221Z,15.69
2022-09-04T04:00:59.808Z,16.06
2022-09-04T04:03:42.449Z,15.81
2022-09-04T04:06:49.998Z,16.19
2022-09-04T04:10:07.796Z,16.19
2022-09-04T04:12:52.960Z,16.19
2022-09-04T04:15:58.655Z,16.31
2022-09-04T04:19:03.056Z,16.19
2022-09-04T04:22:23.835Z,16.19
2022-09-04T04:25:07.598Z,16.13
2022-09-04T04:28:09.384Z,16.19
2022-09-04T04:30:54.649Z,16.19
2022-09-04T04:33:49.585Z,16.13
2022-09-04T04:36:22.927Z,16.19
2022-09-04T04:39:03.408Z,16.13
2022-09-04T04:42:05.912Z,16.06
2022-09-04T04:45:04.325Z,16.13
2022-09-04T04:48:36.622Z,16.25
2022-09-04T04:51:16.119Z,16.00
2022-09-04T04:54:00.588Z,16.06
2022-09-04T04:56:58.129Z,16.19
2022-09-04T04:59:56.583Z,16.13
2022-09-04T05:02:41.364Z,15.88
2022-09-04T05:05:18.826Z,16.19
2022-09-04T05:08:07.696Z,15.94
2022-09-04T05:10:43.969Z,15.88
2022-09-04T05:14:05.668Z,16.06
2022-09-04T05:17:12.507Z,16.00
2022-09-04T05:20:20.479Z,16.06
2022-09-04T05:23:36.725Z,15.88
2022-09-04T05:26:25.780Z,15.69
2022-09-04T05:29:05.223Z,15.81
2022-09-04T05:31:56.818Z,15.50
2022-09-04T05:34:50.719Z,15.44
2022-09-04T05:37:35.430Z,15.63
2022-09-04T05:40:33.538Z,15.56
2022-09-04T05:43:57.373Z,15.69
2022-09-04T05:47:10.265Z,15.69
2022-09-04T05:49:55.195Z,15.63
2022-09-04T05:53:10.195Z,15.56
2022-09-04T05:56:21.346Z,15.63
2022-09-04T05:59:38.937Z,15.69
2022-09-04T06:03:05.226Z,15.44
2022-09-04T06:06:20.924Z,15.56
2022-09-04T06:09:21.737Z,15.44
2022-09-04T06:12:06.121Z,15.13
2022-09-04T06:14:57.714Z,15.31
2022-09-04T06:18:10.379Z,15.38
2022-09-04T06:20:50.176Z,15.19
2022-09-04T06:23:49.098Z,15.25
2022-09-04T06:26:31.478Z,15.38
2022-09-04T06:29:42.626Z,15.31
2022-09-04T06:32:35.007Z,15.19
2022-09-04T06:35:17.452Z,15.31
2022-09-04T06:38:00.116Z,15.31
2022-09-04T06:40:56.740Z,15.44
2022-09-04T06:43:42.200Z,15.31
2022-09-04T06:46:50.523Z,15.31
2022-09-04T06:49:24.811Z,15.13
2022-09-04T06:52:26.924Z,15.25
2022-09-04T06:55:09.985Z,15.19
2022-09-04T06:57:46.768Z,15.06
2022-09-04T07:00:17.734Z,15.13
2022-09-04T07:03:09.297Z,15.19
2022-09-04T07:06:04.674Z,15.25
2022-09-04T07:08:46.818Z,15.38
2022-09-04T07:11:59.467Z,15.31
2022-09-04T07:15:02.906Z,14.81
2022-09-04T07:17:59.523Z,15.25
2022-09-04T07:21:19.899Z,15.38
2022-09-04T07:24:47.426Z,15.44
2022-09-04T07:28:11.760Z,15.44
2022-09-04T07:31:04.293Z,15.56
2022-09-04T07:34:19.264Z,15.56
2022-09-04T07:37:14.691Z,15.31
2022-09-04T07:40:17.522Z,15.44
2022-09-04T07:43:03.963Z,15.44
2022-09-04T07:45:51.722Z,15.63
2022-09-04T07:48:44.804Z,15.63
2022-09-04T07:51:18.848Z,15.44
2022-09-04T07:54:25.312Z,15.63
2022-09-04T07:57:28.603Z,15.38
2022-09-04T08:00:10.851Z,15.56
2022-09-04T08:03:22.726Z,15.44
2022-09-04T08:09:55.649Z,15.69
2022-09-04T08:12:47.952Z,15.75
2022-09-04T08:15:47.443Z,15.38
2022-09-04T08:18:40.342Z,15.63
2022-09-04T08:21:33.191Z,15.50
2022-09-04T08:25:00.748Z,15.63
2022-09-04T08:28:22.151Z,15.56
2022-09-04T08:31:14.334Z,15.69
2022-09-04T08:38:08.839Z,15.44
2022-09-04T08:41:01.992Z,15.50
2022-09-04T08:44:02.855Z,15.69
2022-09-04T08:47:34.088Z,15.81
2022-09-04T08:54:02.016Z,15.63
2022-09-04T09:00:08.157Z,15.75
2022-09-04T09:05:34.946Z,15.69
2022-09-04T09:08:29.699Z,15.63
2022-09-04T09:11:30.147Z,15.75
2022-09-04T09:14:52.064Z,15.81
2022-09-04T09:20:19.377Z,16.06
2022-09-04T09:23:18.770Z,16.06
2022-09-04T09:26:38.249Z,16.31
2022-09-04T09:32:16.212Z,16.19
2022-09-04T09:38:10.294Z,16.44
2022-09-04T09:45:09.213Z,16.31
2022-09-04T09:48:20.448Z,16.50
2022-09-04T09:50:56.099Z,16.44
2022-09-04T09:54:07.061Z,16.50
2022-09-04T09:57:12.846Z,16.50
2022-09-04T10:00:11.993Z,16.63
2022-09-04T10:03:14.099Z,16.69
2022-09-04T10:06:23.646Z,16.94
2022-09-04T10:09:17.957Z,16.88
2022-09-04T10:15:47.873Z,17.06
2022-09-04T10:18:50.593Z,17.25
2022-09-04T10:21:30.003Z,17.06
2022-09-04T10:24:22.648Z,17.13
2022-09-04T10:27:24.066Z,17.25
2022-09-04T10:29:59.710Z,17.19
2022-09-04T10:32:57.630Z,17.19
2022-09-04T10:47:29.766Z,17.44
2022-09-04T10:50:04.118Z,17.56
2022-09-04T10:53:50.215Z,17.63
2022-09-04T10:56:53.297Z,17.94
2022-09-04T10:59:33.547Z,17.75
2022-09-04T11:02:12.725Z,17.56
2022-09-04T11:05:14.760Z,17.63
2022-09-04T11:11:40.895Z,17.88
2022-09-04T11:14:16.756Z,17.88
2022-09-04T11:58:14.122Z,18.19
2022-09-04T13:22:26.924Z,19.00
2022-09-04T13:25:23.504Z,18.69
2022-09-04T13:28:45.913Z,18.94
2022-09-04T14:14:11.186Z,19.31
2022-09-04T14:16:44.135Z,19.38
2022-09-04T14:19:43.161Z,19.31
2022-09-04T14:22:43.509Z,19.38
2022-09-04T14:25:19.360Z,19.31
2022-09-04T14:28:07.814Z,19.31
2022-09-04T14:30:54.889Z,19.13
2022-09-04T14:34:04.160Z,19.25
2022-09-04T14:37:00.159Z,19.19
2022-09-04T14:40:17.013Z,19.25
2022-09-04T14:43:16.173Z,19.38
2022-09-04T14:52:05.129Z,19.25
2022-09-04T17:07:08.048Z,17.50
2022-09-04T17:09:50.381Z,17.56
2022-09-04T17:12:43.252Z,17.56
2022-09-04T17:15:27.102Z,17.44
2022-09-04T17:17:56.382Z,17.44
2022-09-04T17:25:05.704Z,17.50
2022-09-04T17:29:01.370Z,17.44
2022-09-04T17:29:12.480Z,17.38
2022-09-04T17:29:54.386Z,17.19
2022-09-04T17:38:59.744Z,17.19
2022-09-04T17:40:44.299Z,17.31
2022-09-04T17:40:50.007Z,17.13
2022-09-04T17:42:00.772Z,17.25
2022-09-04T17:45:04.370Z,17.13
2022-09-04T17:47:44.026Z,17.00
2022-09-04T17:50:23.937Z,17.00
2022-09-04T17:53:02.278Z,16.88
2022-09-04T17:55:38.801Z,16.94
2022-09-04T17:58:30.139Z,17.06
2022-09-04T18:01:14.159Z,17.00
2022-09-04T18:04:21.806Z,16.94
2022-09-04T18:07:33.590Z,16.88
2022-09-04T18:10:52.069Z,16.88
2022-09-04T18:13:37.461Z,16.75
2022-09-04T18:16:53.316Z,16.69
2022-09-04T18:19:51.691Z,16.63
2022-09-04T18:25:21.757Z,16.50
2022-09-04T18:28:10.985Z,16.56
2022-09-04T18:37:10.472Z,16.50
2022-09-04T18:37:26.901Z,16.44
2022-09-04T18:38:02.108Z,16.38
2022-09-04T18:44:00.855Z,16.38
2022-09-04T18:50:31.291Z,16.25
2022-09-04T18:50:34.795Z,16.38
2022-09-04T18:50:52.091Z,16.38
2022-09-04T18:52:43.485Z,16.31
2022-09-04T18:55:32.248Z,16.25
2022-09-04T18:58:11.547Z,16.19
2022-09-04T19:01:06.659Z,16.19
2022-09-04T19:03:47.944Z,16.13
2022-09-04T19:06:35.029Z,16.00
2022-09-04T19:09:14.641Z,16.06
2022-09-04T19:11:54.999Z,16.00
2022-09-04T19:14:35.323Z,16.06
2022-09-04T19:17:21.293Z,15.94
2022-09-04T19:20:02.760Z,15.94
2022-09-04T19:22:40.021Z,15.94
2022-09-04T19:25:30.647Z,15.94
2022-09-04T19:28:16.553Z,15.94
2022-09-04T19:30:58.902Z,16.06
2022-09-04T19:34:03.744Z,16.00
2022-09-04T19:36:49.803Z,16.00
2022-09-04T19:45:59.686Z,15.94
2022-09-04T19:46:03.737Z,15.88
2022-09-04T19:46:43.237Z,15.88
2022-09-04T19:53:12.865Z,15.81
2022-09-04T19:53:31.647Z,15.81
2022-09-04T19:55:46.347Z,15.75
2022-09-04T19:58:43.943Z,15.69
2022-09-04T20:01:26.191Z,15.63
2022-09-04T20:04:11.871Z,15.63
2022-09-04T20:06:55.229Z,15.56
2022-09-04T20:09:51.384Z,15.44
2022-09-04T20:12:27.906Z,15.50
2022-09-04T20:15:18.178Z,15.56
2022-09-04T20:18:08.533Z,15.50
2022-09-04T20:20:45.069Z,15.50
2022-09-04T20:23:34.259Z,15.56
2022-09-04T20:26:27.749Z,15.56
2022-09-04T20:29:54.807Z,15.56
2022-09-04T20:32:37.128Z,15.50
2022-09-04T20:35:44.515Z,15.44
2022-09-04T20:38:23.251Z,15.31
2022-09-04T20:41:19.180Z,15.38
2022-09-04T20:44:31.405Z,15.38
2022-09-04T20:52:43.975Z,15.44
2022-09-04T20:52:48.889Z,15.25
2022-09-04T20:53:23.769Z,15.19
2022-09-04T20:57:13.655Z,15.25
2022-09-04T21:03:14.704Z,15.19
2022-09-04T21:03:21.234Z,15.13
2022-09-04T21:06:13.133Z,15.19
2022-09-04T21:09:22.728Z,15.25
2022-09-04T21:12:15.171Z,15.19
2022-09-04T21:14:48.582Z,15.13
2022-09-04T21:17:49.994Z,15.00
2022-09-04T21:21:00.001Z,15.13
2022-09-04T21:23:41.754Z,15.13
2022-09-04T21:26:22.746Z,15.19
2022-09-04T21:29:11.583Z,15.13
2022-09-04T21:32:10.797Z,15.19
2022-09-04T21:35:06.953Z,15.13
2022-09-04T21:38:39.166Z,15.19
2022-09-04T21:41:27.999Z,14.88
2022-09-04T21:44:28.568Z,15.06
2022-09-04T21:47:22.539Z,15.00
2022-09-04T21:50:30.571Z,15.00
2022-09-04T21:53:44.115Z,15.06
2022-09-04T22:01:07.547Z,14.81
2022-09-04T22:02:37.797Z,15.06
2022-09-04T22:02:57.625Z,15.06
2022-09-04T22:06:04.500Z,15.00
2022-09-04T22:13:35.445Z,15.13
2022-09-04T22:13:41.779Z,15.06
2022-09-04T22:15:07.424Z,14.94
2022-09-04T22:17:45.034Z,15.00
2022-09-04T22:20:44.414Z,15.19
2022-09-04T22:23:20.850Z,15.00
2022-09-04T22:26:09.205Z,15.06
2022-09-04T22:29:03.641Z,15.19
2022-09-04T22:32:44.519Z,15.13
2022-09-04T22:35:20.527Z,15.31
2022-09-04T22:38:50.860Z,15.13
2022-09-04T22:41:27.047Z,15.13
2022-09-04T22:44:05.438Z,15.13
2022-09-04T22:47:23.130Z,14.81
2022-09-04T22:50:25.295Z,15.13
2022-09-04T22:53:40.341Z,15.13
2022-09-04T22:56:23.456Z,15.31
2022-09-04T22:59:26.854Z,15.13
2022-09-04T23:03:07.283Z,15.13
2022-09-04T23:06:01.628Z,15.06
2022-09-04T23:13:42.211Z,15.13
2022-09-04T23:13:58.573Z,15.31
2022-09-04T23:15:39.521Z,14.88
2022-09-04T23:21:12.223Z,15.13
2022-09-04T23:26:33.169Z,15.31
2022-09-04T23:26:53.816Z,15.19
2022-09-04T23:28:27.543Z,15.31
2022-09-04T23:31:37.227Z,15.31
2022-09-04T23:34:27.400Z,15.25
2022-09-04T23:40:10.886Z,15.13
2022-09-04T23:43:18.884Z,15.19
2022-09-04T23:46:31.417Z,15.19
2022-09-04T23:49:33.379Z,15.25
2022-09-04T23:52:49.030Z,14.88
2022-09-04T23:55:44.975Z,14.88
2022-09-04T23:59:20.326Z,14.81
